sensor_id;sensor_type;location;lat;lon;timestamp;temperature;humidity
53880;DHT22;39791;53.184;5.486;2023-01-28T00:00:30;4.80;99.90
53880;DHT22;39791;53.184;5.486;2023-01-28T00:02:55;4.70;99.90
53880;DHT22;39791;53.184;5.486;2023-01-28T00:05:21;4.80;99.90
53880;DHT22;39791;53.184;5.486;2023-01-28T00:07:49;4.60;99.90
53880;DHT22;39791;53.184;5.486;2023-01-28T00:10:15;4.60;99.90
53880;DHT22;39791;53.184;5.486;2023-01-28T00:12:40;4.70;99.90
53880;DHT22;39791;53.184;5.486;2023-01-28T00:15:06;4.50;99.90
53880;DHT22;39791;53.184;5.486;2023-01-28T00:17:32;4.50;99.90
53880;DHT22;39791;53.184;5.486;2023-01-28T00:19:57;4.60;99.90
53880;DHT22;39791;53.184;5.486;2023-01-28T00:22:23;4.70;99.90
53880;DHT22;39791;53.184;5.486;2023-01-28T00:24:48;4.60;99.90
53880;DHT22;39791;53.184;5.486;2023-01-28T00:27:14;4.60;99.90
53880;DHT22;39791;53.184;5.486;2023-01-28T00:29:40;4.50;99.90
53880;DHT22;39791;53.184;5.486;2023-01-28T00:32:06;4.60;99.90
53880;DHT22;39791;53.184;5.486;2023-01-28T00:34:32;4.50;99.90
53880;DHT22;39791;53.184;5.486;2023-01-28T00:36:57;4.80;99.90
53880;DHT22;39791;53.184;5.486;2023-01-28T00:39:24;4.60;99.90
53880;DHT22;39791;53.184;5.486;2023-01-28T00:41:50;4.60;99.90
53880;DHT22;39791;53.184;5.486;2023-01-28T00:44:16;4.70;99.90
53880;DHT22;39791;53.184;5.486;2023-01-28T00:46:42;4.70;99.90
53880;DHT22;39791;53.184;5.486;2023-01-28T00:49:08;4.70;99.90
53880;DHT22;39791;53.184;5.486;2023-01-28T00:51:33;4.50;99.90
53880;DHT22;39791;53.184;5.486;2023-01-28T00:53:59;4.60;99.90
53880;DHT22;39791;53.184;5.486;2023-01-28T00:56:25;4.60;99.90
53880;DHT22;39791;53.184;5.486;2023-01-28T00:58:50;4.50;99.90
53880;DHT22;39791;53.184;5.486;2023-01-28T01:01:21;4.60;99.90
53880;DHT22;39791;53.184;5.486;2023-01-28T01:03:47;4.50;99.90
53880;DHT22;39791;53.184;5.486;2023-01-28T01:06:18;4.50;99.90
53880;DHT22;39791;53.184;5.486;2023-01-28T01:08:44;4.50;99.90
53880;DHT22;39791;53.184;5.486;2023-01-28T01:11:15;4.60;99.90
53880;DHT22;39791;53.184;5.486;2023-01-28T01:13:41;4.50;99.90
53880;DHT22;39791;53.184;5.486;2023-01-28T01:16:10;4.60;99.90
53880;DHT22;39791;53.184;5.486;2023-01-28T01:18:37;4.50;99.90
53880;DHT22;39791;53.184;5.486;2023-01-28T01:21:08;4.50;99.90
53880;DHT22;39791;53.184;5.486;2023-01-28T01:23:34;4.50;99.90
53880;DHT22;39791;53.184;5.486;2023-01-28T01:25:59;4.60;99.90
53880;DHT22;39791;53.184;5.486;2023-01-28T01:28:25;4.70;99.90
53880;DHT22;39791;53.184;5.486;2023-01-28T01:31:01;4.50;99.90
53880;DHT22;39791;53.184;5.486;2023-01-28T01:33:28;4.50;99.90
53880;DHT22;39791;53.184;5.486;2023-01-28T01:35:54;4.70;99.90
53880;DHT22;39791;53.184;5.486;2023-01-28T01:38:20;4.70;99.90
53880;DHT22;39791;53.184;5.486;2023-01-28T01:40:46;4.60;99.90
53880;DHT22;39791;53.184;5.486;2023-01-28T01:43:19;4.60;99.90
53880;DHT22;39791;53.184;5.486;2023-01-28T01:45:54;4.60;99.90
53880;DHT22;39791;53.184;5.486;2023-01-28T01:48:30;4.60;99.90
53880;DHT22;39791;53.184;5.486;2023-01-28T01:51:07;4.50;99.90
53880;DHT22;39791;53.184;5.486;2023-01-28T01:53:36;4.70;99.90
53880;DHT22;39791;53.184;5.486;2023-01-28T01:56:05;4.60;99.90
53880;DHT22;39791;53.184;5.486;2023-01-28T01:58:35;4.40;99.90
53880;DHT22;39791;53.184;5.486;2023-01-28T02:01:02;4.30;99.90
53880;DHT22;39791;53.184;5.486;2023-01-28T02:03:37;4.50;99.90
53880;DHT22;39791;53.184;5.486;2023-01-28T02:06:05;4.50;99.90
53880;DHT22;39791;53.184;5.486;2023-01-28T02:08:32;4.30;99.90
53880;DHT22;39791;53.184;5.486;2023-01-28T02:11:01;4.40;99.90
53880;DHT22;39791;53.184;5.486;2023-01-28T02:13:31;4.20;99.90
53880;DHT22;39791;53.184;5.486;2023-01-28T02:15:59;4.40;99.90
53880;DHT22;39791;53.184;5.486;2023-01-28T02:18:25;4.40;99.90
53880;DHT22;39791;53.184;5.486;2023-01-28T02:23:42;4.20;99.90
53880;DHT22;39791;53.184;5.486;2023-01-28T02:26:30;4.40;99.90
53880;DHT22;39791;53.184;5.486;2023-01-28T02:29:09;4.20;99.90
53880;DHT22;39791;53.184;5.486;2023-01-28T02:31:43;4.10;99.90
53880;DHT22;39791;53.184;5.486;2023-01-28T02:34:18;4.20;99.90
53880;DHT22;39791;53.184;5.486;2023-01-28T02:36:55;4.10;99.90
53880;DHT22;39791;53.184;5.486;2023-01-28T02:39:39;4.20;99.90
53880;DHT22;39791;53.184;5.486;2023-01-28T02:42:09;4.00;99.90
53880;DHT22;39791;53.184;5.486;2023-01-28T02:44:36;4.00;99.90
53880;DHT22;39791;53.184;5.486;2023-01-28T02:47:01;4.10;99.90
53880;DHT22;39791;53.184;5.486;2023-01-28T02:49:51;4.00;99.90
53880;DHT22;39791;53.184;5.486;2023-01-28T03:03:58;4.10;99.90
53880;DHT22;39791;53.184;5.486;2023-01-28T03:06:30;4.20;99.90
53880;DHT22;39791;53.184;5.486;2023-01-28T03:09:01;4.20;99.90
53880;DHT22;39791;53.184;5.486;2023-01-28T03:12:08;4.20;99.90
53880;DHT22;39791;53.184;5.486;2023-01-28T03:15:09;4.20;99.90
53880;DHT22;39791;53.184;5.486;2023-01-28T03:18:17;4.10;99.90
53880;DHT22;39791;53.184;5.486;2023-01-28T03:21:11;4.20;1.00
53880;DHT22;39791;53.184;5.486;2023-01-28T03:24:14;4.50;1.00
53880;DHT22;39791;53.184;5.486;2023-01-28T03:27:05;4.20;1.00
53880;DHT22;39791;53.184;5.486;2023-01-28T03:29:52;4.10;1.00
53880;DHT22;39791;53.184;5.486;2023-01-28T03:32:38;4.20;1.00
53880;DHT22;39791;53.184;5.486;2023-01-28T03:35:24;4.40;1.00
53880;DHT22;39791;53.184;5.486;2023-01-28T03:38:09;4.40;1.00
53880;DHT22;39791;53.184;5.486;2023-01-28T03:41:05;4.10;1.00
53880;DHT22;39791;53.184;5.486;2023-01-28T03:43:31;4.10;1.00
53880;DHT22;39791;53.184;5.486;2023-01-28T03:45:57;4.30;1.00
53880;DHT22;39791;53.184;5.486;2023-01-28T03:48:25;4.30;1.00
53880;DHT22;39791;53.184;5.486;2023-01-28T03:50:52;4.00;1.00
53880;DHT22;39791;53.184;5.486;2023-01-28T03:53:18;4.30;1.00
53880;DHT22;39791;53.184;5.486;2023-01-28T03:55:46;4.40;1.00
53880;DHT22;39791;53.184;5.486;2023-01-28T03:58:12;4.10;1.00
53880;DHT22;39791;53.184;5.486;2023-01-28T04:00:38;4.00;1.00
53880;DHT22;39791;53.184;5.486;2023-01-28T04:03:12;4.00;1.00
53880;DHT22;39791;53.184;5.486;2023-01-28T04:05:58;4.20;1.00
53880;DHT22;39791;53.184;5.486;2023-01-28T04:08:24;4.10;1.00
53880;DHT22;39791;53.184;5.486;2023-01-28T04:10:49;4.00;1.00
53880;DHT22;39791;53.184;5.486;2023-01-28T04:13:15;3.90;1.00
53880;DHT22;39791;53.184;5.486;2023-01-28T04:15:41;4.20;1.00
53880;DHT22;39791;53.184;5.486;2023-01-28T04:18:08;4.00;1.00
53880;DHT22;39791;53.184;5.486;2023-01-28T04:20:34;4.00;1.00
53880;DHT22;39791;53.184;5.486;2023-01-28T04:23:00;4.30;1.00
53880;DHT22;39791;53.184;5.486;2023-01-28T04:25:26;4.00;1.00
53880;DHT22;39791;53.184;5.486;2023-01-28T04:27:52;4.30;1.00
53880;DHT22;39791;53.184;5.486;2023-01-28T04:30:18;4.00;1.00
53880;DHT22;39791;53.184;5.486;2023-01-28T04:32:45;4.30;1.00
53880;DHT22;39791;53.184;5.486;2023-01-28T04:35:11;4.30;1.00
53880;DHT22;39791;53.184;5.486;2023-01-28T04:37:36;4.30;1.00
53880;DHT22;39791;53.184;5.486;2023-01-28T04:40:02;4.20;1.00
53880;DHT22;39791;53.184;5.486;2023-01-28T04:42:27;4.10;1.00
53880;DHT22;39791;53.184;5.486;2023-01-28T04:44:53;4.30;1.00
53880;DHT22;39791;53.184;5.486;2023-01-28T04:47:18;4.30;1.00
53880;DHT22;39791;53.184;5.486;2023-01-28T04:49:44;3.90;1.00
53880;DHT22;39791;53.184;5.486;2023-01-28T04:52:10;3.90;1.00
53880;DHT22;39791;53.184;5.486;2023-01-28T04:54:35;4.30;1.00
53880;DHT22;39791;53.184;5.486;2023-01-28T04:57:01;4.20;1.00
53880;DHT22;39791;53.184;5.486;2023-01-28T04:59:27;3.90;1.00
53880;DHT22;39791;53.184;5.486;2023-01-28T05:01:52;4.20;1.00
53880;DHT22;39791;53.184;5.486;2023-01-28T05:04:18;4.20;1.00
53880;DHT22;39791;53.184;5.486;2023-01-28T05:06:43;3.80;1.00
53880;DHT22;39791;53.184;5.486;2023-01-28T05:09:09;3.80;1.00
53880;DHT22;39791;53.184;5.486;2023-01-28T05:11:34;4.20;1.00
53880;DHT22;39791;53.184;5.486;2023-01-28T05:14:00;4.40;1.00
53880;DHT22;39791;53.184;5.486;2023-01-28T05:16:26;4.00;1.00
53880;DHT22;39791;53.184;5.486;2023-01-28T05:18:52;4.10;1.00
53880;DHT22;39791;53.184;5.486;2023-01-28T05:21:17;4.00;1.00
53880;DHT22;39791;53.184;5.486;2023-01-28T05:23:43;3.90;1.00
53880;DHT22;39791;53.184;5.486;2023-01-28T05:26:09;3.90;1.00
53880;DHT22;39791;53.184;5.486;2023-01-28T05:28:35;4.00;1.00
53880;DHT22;39791;53.184;5.486;2023-01-28T05:31:05;3.90;1.00
53880;DHT22;39791;53.184;5.486;2023-01-28T05:33:31;3.90;1.00
53880;DHT22;39791;53.184;5.486;2023-01-28T05:35:56;4.00;1.00
53880;DHT22;39791;53.184;5.486;2023-01-28T05:38:22;3.80;1.00
53880;DHT22;39791;53.184;5.486;2023-01-28T05:40:48;4.10;1.00
53880;DHT22;39791;53.184;5.486;2023-01-28T05:43:14;4.10;1.00
53880;DHT22;39791;53.184;5.486;2023-01-28T05:45:40;3.90;1.00
53880;DHT22;39791;53.184;5.486;2023-01-28T05:48:05;3.70;1.00
53880;DHT22;39791;53.184;5.486;2023-01-28T05:50:31;3.70;1.00
53880;DHT22;39791;53.184;5.486;2023-01-28T05:52:56;3.90;1.00
53880;DHT22;39791;53.184;5.486;2023-01-28T05:55:22;4.00;1.00
53880;DHT22;39791;53.184;5.486;2023-01-28T05:57:48;3.90;1.00
53880;DHT22;39791;53.184;5.486;2023-01-28T06:00:14;3.50;1.00
53880;DHT22;39791;53.184;5.486;2023-01-28T06:02:41;3.30;1.00
53880;DHT22;39791;53.184;5.486;2023-01-28T06:05:07;3.60;1.00
53880;DHT22;39791;53.184;5.486;2023-01-28T06:07:33;3.10;1.00
53880;DHT22;39791;53.184;5.486;2023-01-28T06:09:58;3.40;1.00
53880;DHT22;39791;53.184;5.486;2023-01-28T06:12:24;3.10;1.00
53880;DHT22;39791;53.184;5.486;2023-01-28T06:14:49;3.30;1.00
53880;DHT22;39791;53.184;5.486;2023-01-28T06:17:15;3.00;1.00
53880;DHT22;39791;53.184;5.486;2023-01-28T06:19:40;3.20;1.00
53880;DHT22;39791;53.184;5.486;2023-01-28T06:22:06;3.00;1.00
53880;DHT22;39791;53.184;5.486;2023-01-28T06:24:32;3.00;1.00
53880;DHT22;39791;53.184;5.486;2023-01-28T06:26:57;2.80;1.00
53880;DHT22;39791;53.184;5.486;2023-01-28T06:29:23;2.90;1.00
53880;DHT22;39791;53.184;5.486;2023-01-28T06:31:48;2.80;1.00
53880;DHT22;39791;53.184;5.486;2023-01-28T06:34:15;3.10;1.00
53880;DHT22;39791;53.184;5.486;2023-01-28T06:36:41;2.90;1.00
53880;DHT22;39791;53.184;5.486;2023-01-28T06:39:06;2.50;42.50
53880;DHT22;39791;53.184;5.486;2023-01-28T06:41:32;2.70;54.10
53880;DHT22;39791;53.184;5.486;2023-01-28T06:43:58;2.60;51.20
53880;DHT22;39791;53.184;5.486;2023-01-28T06:46:23;2.70;68.20
53880;DHT22;39791;53.184;5.486;2023-01-28T06:48:49;2.40;96.90
53880;DHT22;39791;53.184;5.486;2023-01-28T06:51:15;2.50;99.90
53880;DHT22;39791;53.184;5.486;2023-01-28T06:53:40;2.90;99.90
53880;DHT22;39791;53.184;5.486;2023-01-28T06:56:06;2.60;99.90
53880;DHT22;39791;53.184;5.486;2023-01-28T06:58:33;2.90;99.90
53880;DHT22;39791;53.184;5.486;2023-01-28T07:00:59;2.50;99.90
53880;DHT22;39791;53.184;5.486;2023-01-28T07:03:25;2.70;99.90
53880;DHT22;39791;53.184;5.486;2023-01-28T07:05:50;2.80;99.90
53880;DHT22;39791;53.184;5.486;2023-01-28T07:08:16;2.50;99.90
53880;DHT22;39791;53.184;5.486;2023-01-28T07:10:42;2.40;99.90
53880;DHT22;39791;53.184;5.486;2023-01-28T07:13:08;2.70;99.90
53880;DHT22;39791;53.184;5.486;2023-01-28T07:15:34;2.60;99.90
53880;DHT22;39791;53.184;5.486;2023-01-28T07:17:59;2.30;99.90
53880;DHT22;39791;53.184;5.486;2023-01-28T07:20:25;2.80;99.90
53880;DHT22;39791;53.184;5.486;2023-01-28T07:22:51;2.20;99.90
53880;DHT22;39791;53.184;5.486;2023-01-28T07:25:16;2.20;99.90
53880;DHT22;39791;53.184;5.486;2023-01-28T07:27:50;2.40;99.90
53880;DHT22;39791;53.184;5.486;2023-01-28T07:30:17;2.10;99.90
53880;DHT22;39791;53.184;5.486;2023-01-28T07:32:43;2.40;99.90
53880;DHT22;39791;53.184;5.486;2023-01-28T07:35:08;1.90;99.90
53880;DHT22;39791;53.184;5.486;2023-01-28T07:37:34;2.60;99.90
53880;DHT22;39791;53.184;5.486;2023-01-28T07:40:00;2.20;99.90
53880;DHT22;39791;53.184;5.486;2023-01-28T07:42:25;2.00;99.90
53880;DHT22;39791;53.184;5.486;2023-01-28T07:44:51;2.40;99.90
53880;DHT22;39791;53.184;5.486;2023-01-28T07:47:16;2.30;99.90
53880;DHT22;39791;53.184;5.486;2023-01-28T07:49:42;2.40;99.90
53880;DHT22;39791;53.184;5.486;2023-01-28T07:52:08;1.90;99.90
53880;DHT22;39791;53.184;5.486;2023-01-28T07:54:33;2.00;99.90
53880;DHT22;39791;53.184;5.486;2023-01-28T07:56:59;2.00;99.90
53880;DHT22;39791;53.184;5.486;2023-01-28T07:59:25;2.40;99.90
53880;DHT22;39791;53.184;5.486;2023-01-28T08:01:50;2.30;99.90
53880;DHT22;39791;53.184;5.486;2023-01-28T08:04:17;2.00;99.90
53880;DHT22;39791;53.184;5.486;2023-01-28T08:06:42;2.00;99.90
53880;DHT22;39791;53.184;5.486;2023-01-28T08:09:08;2.00;99.90
53880;DHT22;39791;53.184;5.486;2023-01-28T08:11:36;1.90;99.90
53880;DHT22;39791;53.184;5.486;2023-01-28T08:14:02;2.30;99.90
53880;DHT22;39791;53.184;5.486;2023-01-28T08:16:28;2.00;99.90
53880;DHT22;39791;53.184;5.486;2023-01-28T08:18:54;2.10;99.90
53880;DHT22;39791;53.184;5.486;2023-01-28T08:21:20;2.20;99.90
53880;DHT22;39791;53.184;5.486;2023-01-28T08:23:45;2.60;99.90
53880;DHT22;39791;53.184;5.486;2023-01-28T08:26:11;2.90;99.90
53880;DHT22;39791;53.184;5.486;2023-01-28T08:28:36;2.90;99.90
53880;DHT22;39791;53.184;5.486;2023-01-28T08:31:02;3.10;99.90
53880;DHT22;39791;53.184;5.486;2023-01-28T08:33:28;3.20;99.90
53880;DHT22;39791;53.184;5.486;2023-01-28T08:35:53;3.30;99.90
53880;DHT22;39791;53.184;5.486;2023-01-28T08:38:19;3.00;99.90
53880;DHT22;39791;53.184;5.486;2023-01-28T08:40:45;3.20;99.90
53880;DHT22;39791;53.184;5.486;2023-01-28T08:43:11;2.80;99.90
53880;DHT22;39791;53.184;5.486;2023-01-28T08:45:39;2.90;99.90
53880;DHT22;39791;53.184;5.486;2023-01-28T08:48:06;3.30;99.90
53880;DHT22;39791;53.184;5.486;2023-01-28T08:50:34;3.40;99.90
53880;DHT22;39791;53.184;5.486;2023-01-28T08:53:02;3.30;99.90
53880;DHT22;39791;53.184;5.486;2023-01-28T08:55:29;3.50;99.90
53880;DHT22;39791;53.184;5.486;2023-01-28T08:57:55;3.30;99.90
53880;DHT22;39791;53.184;5.486;2023-01-28T09:00:21;3.60;99.90
53880;DHT22;39791;53.184;5.486;2023-01-28T09:02:50;3.80;99.90
53880;DHT22;39791;53.184;5.486;2023-01-28T09:05:17;3.80;99.90
53880;DHT22;39791;53.184;5.486;2023-01-28T09:07:42;3.50;99.90
53880;DHT22;39791;53.184;5.486;2023-01-28T09:10:09;4.00;99.90
53880;DHT22;39791;53.184;5.486;2023-01-28T09:12:35;3.60;99.90
53880;DHT22;39791;53.184;5.486;2023-01-28T09:15:01;4.00;99.90
53880;DHT22;39791;53.184;5.486;2023-01-28T09:17:26;3.70;99.90
53880;DHT22;39791;53.184;5.486;2023-01-28T09:19:52;4.30;99.90
53880;DHT22;39791;53.184;5.486;2023-01-28T09:22:17;4.00;99.90
53880;DHT22;39791;53.184;5.486;2023-01-28T09:24:43;4.40;99.90
53880;DHT22;39791;53.184;5.486;2023-01-28T09:27:08;4.50;99.90
53880;DHT22;39791;53.184;5.486;2023-01-28T09:29:34;4.40;99.90
53880;DHT22;39791;53.184;5.486;2023-01-28T09:31:59;4.30;99.90
53880;DHT22;39791;53.184;5.486;2023-01-28T09:34:25;4.60;99.90
53880;DHT22;39791;53.184;5.486;2023-01-28T09:36:51;4.70;99.90
53880;DHT22;39791;53.184;5.486;2023-01-28T09:39:17;4.90;99.90
53880;DHT22;39791;53.184;5.486;2023-01-28T09:42:28;4.70;99.90
53880;DHT22;39791;53.184;5.486;2023-01-28T09:45:08;4.90;99.90
53880;DHT22;39791;53.184;5.486;2023-01-28T09:47:45;5.10;1.00
53880;DHT22;39791;53.184;5.486;2023-01-28T09:50:32;5.60;1.00
53880;DHT22;39791;53.184;5.486;2023-01-28T09:53:11;5.00;1.00
53880;DHT22;39791;53.184;5.486;2023-01-28T09:55:40;5.10;1.00
53880;DHT22;39791;53.184;5.486;2023-01-28T09:58:13;5.70;1.00
53880;DHT22;39791;53.184;5.486;2023-01-28T10:00:59;5.90;1.00
53880;DHT22;39791;53.184;5.486;2023-01-28T10:17:33;6.20;99.90
53880;DHT22;39791;53.184;5.486;2023-01-28T10:20:22;6.40;99.90
53880;DHT22;39791;53.184;5.486;2023-01-28T10:25:24;6.40;99.90
53880;DHT22;39791;53.184;5.486;2023-01-28T10:27:51;6.50;99.90
53880;DHT22;39791;53.184;5.486;2023-01-28T10:30:19;6.80;96.30
53880;DHT22;39791;53.184;5.486;2023-01-28T10:32:51;7.00;77.50
53880;DHT22;39791;53.184;5.486;2023-01-28T10:35:17;6.80;10.70
53880;DHT22;39791;53.184;5.486;2023-01-28T10:37:43;6.80;1.00
53880;DHT22;39791;53.184;5.486;2023-01-28T10:40:16;6.70;1.00
53880;DHT22;39791;53.184;5.486;2023-01-28T10:42:43;6.90;1.00
53880;DHT22;39791;53.184;5.486;2023-01-28T10:45:22;6.70;1.00
53880;DHT22;39791;53.184;5.486;2023-01-28T10:47:53;6.70;1.00
53880;DHT22;39791;53.184;5.486;2023-01-28T10:50:25;6.70;1.00
53880;DHT22;39791;53.184;5.486;2023-01-28T10:52:56;6.60;99.90
53880;DHT22;39791;53.184;5.486;2023-01-28T10:55:25;6.50;99.90
53880;DHT22;39791;53.184;5.486;2023-01-28T10:57:52;6.50;99.90
53880;DHT22;39791;53.184;5.486;2023-01-28T11:00:23;6.60;99.90
53880;DHT22;39791;53.184;5.486;2023-01-28T11:02:50;6.50;99.90
53880;DHT22;39791;53.184;5.486;2023-01-28T11:05:24;6.60;99.90
53880;DHT22;39791;53.184;5.486;2023-01-28T11:08:15;6.60;99.90
53880;DHT22;39791;53.184;5.486;2023-01-28T11:10:42;6.50;99.90
53880;DHT22;39791;53.184;5.486;2023-01-28T11:13:19;6.40;99.90
53880;DHT22;39791;53.184;5.486;2023-01-28T11:18:30;6.50;99.90
53880;DHT22;39791;53.184;5.486;2023-01-28T11:21:00;6.40;99.90
53880;DHT22;39791;53.184;5.486;2023-01-28T11:23:31;6.20;99.90
53880;DHT22;39791;53.184;5.486;2023-01-28T11:26:14;6.20;99.90
53880;DHT22;39791;53.184;5.486;2023-01-28T11:28:42;6.10;99.90
53880;DHT22;39791;53.184;5.486;2023-01-28T11:31:11;6.20;99.90
53880;DHT22;39791;53.184;5.486;2023-01-28T11:33:41;6.00;99.90
53880;DHT22;39791;53.184;5.486;2023-01-28T11:36:14;5.90;99.90
53880;DHT22;39791;53.184;5.486;2023-01-28T11:38:57;6.10;99.90
53880;DHT22;39791;53.184;5.486;2023-01-28T11:41:34;6.40;99.90
53880;DHT22;39791;53.184;5.486;2023-01-28T11:47:00;6.60;99.90
53880;DHT22;39791;53.184;5.486;2023-01-28T11:55:24;7.20;99.90
53880;DHT22;39791;53.184;5.486;2023-01-28T12:08:54;7.10;99.90
53880;DHT22;39791;53.184;5.486;2023-01-28T12:11:59;7.00;99.90
53880;DHT22;39791;53.184;5.486;2023-01-28T12:29:05;6.40;99.90
53880;DHT22;39791;53.184;5.486;2023-01-28T12:34:51;6.00;99.90
53880;DHT22;39791;53.184;5.486;2023-01-28T12:37:31;6.10;99.90
53880;DHT22;39791;53.184;5.486;2023-01-28T12:40:05;5.70;99.90
53880;DHT22;39791;53.184;5.486;2023-01-28T12:42:51;5.40;99.90
53880;DHT22;39791;53.184;5.486;2023-01-28T12:45:31;5.20;99.90
53880;DHT22;39791;53.184;5.486;2023-01-28T12:48:03;5.20;99.90
53880;DHT22;39791;53.184;5.486;2023-01-28T12:50:37;5.60;99.90
53880;DHT22;39791;53.184;5.486;2023-01-28T12:53:24;5.90;99.90
53880;DHT22;39791;53.184;5.486;2023-01-28T12:56:07;6.40;99.90
53880;DHT22;39791;53.184;5.486;2023-01-28T12:58:54;6.50;99.90
53880;DHT22;39791;53.184;5.486;2023-01-28T13:01:36;6.80;99.90
53880;DHT22;39791;53.184;5.486;2023-01-28T13:06:47;7.00;99.90
53880;DHT22;39791;53.184;5.486;2023-01-28T13:09:19;7.10;99.90
53880;DHT22;39791;53.184;5.486;2023-01-28T13:11:48;7.10;99.90
53880;DHT22;39791;53.184;5.486;2023-01-28T13:14:15;7.00;99.90
53880;DHT22;39791;53.184;5.486;2023-01-28T13:16:42;7.00;99.90
53880;DHT22;39791;53.184;5.486;2023-01-28T13:21:42;7.00;99.90
53880;DHT22;39791;53.184;5.486;2023-01-28T13:26:53;7.00;99.90
53880;DHT22;39791;53.184;5.486;2023-01-28T13:29:21;7.00;99.90
53880;DHT22;39791;53.184;5.486;2023-01-28T13:31:54;7.00;99.90
53880;DHT22;39791;53.184;5.486;2023-01-28T13:34:38;7.00;99.90
53880;DHT22;39791;53.184;5.486;2023-01-28T13:40:05;7.10;99.90
53880;DHT22;39791;53.184;5.486;2023-01-28T13:42:33;7.00;99.90
53880;DHT22;39791;53.184;5.486;2023-01-28T13:47:44;7.10;99.90
53880;DHT22;39791;53.184;5.486;2023-01-28T13:50:23;7.20;99.90
53880;DHT22;39791;53.184;5.486;2023-01-28T13:53:03;7.00;99.90
53880;DHT22;39791;53.184;5.486;2023-01-28T13:55:35;7.10;99.90
53880;DHT22;39791;53.184;5.486;2023-01-28T14:06:31;7.00;99.90
53880;DHT22;39791;53.184;5.486;2023-01-28T14:09:25;7.10;99.90
53880;DHT22;39791;53.184;5.486;2023-01-28T14:18:00;7.20;99.90
53880;DHT22;39791;53.184;5.486;2023-01-28T14:20:29;7.20;99.90
53880;DHT22;39791;53.184;5.486;2023-01-28T14:23:05;7.10;99.90
53880;DHT22;39791;53.184;5.486;2023-01-28T14:25:55;7.10;99.90
53880;DHT22;39791;53.184;5.486;2023-01-28T14:28:50;7.20;99.90
53880;DHT22;39791;53.184;5.486;2023-01-28T14:31:26;7.20;99.90
53880;DHT22;39791;53.184;5.486;2023-01-28T14:33:54;7.10;99.90
53880;DHT22;39791;53.184;5.486;2023-01-28T14:36:22;7.20;99.90
53880;DHT22;39791;53.184;5.486;2023-01-28T14:38:48;7.30;99.90
53880;DHT22;39791;53.184;5.486;2023-01-28T14:41:21;7.10;99.90
53880;DHT22;39791;53.184;5.486;2023-01-28T14:43:48;7.40;99.90
53880;DHT22;39791;53.184;5.486;2023-01-28T14:46:43;7.30;99.90
53880;DHT22;39791;53.184;5.486;2023-01-28T14:49:35;7.20;99.90
53880;DHT22;39791;53.184;5.486;2023-01-28T14:52:11;7.30;99.90
53880;DHT22;39791;53.184;5.486;2023-01-28T14:57:59;7.30;99.90
53880;DHT22;39791;53.184;5.486;2023-01-28T15:00:30;7.20;99.90
53880;DHT22;39791;53.184;5.486;2023-01-28T15:02:56;7.20;99.90
53880;DHT22;39791;53.184;5.486;2023-01-28T15:05:27;7.30;99.90
53880;DHT22;39791;53.184;5.486;2023-01-28T15:07:53;7.40;99.90
53880;DHT22;39791;53.184;5.486;2023-01-28T15:10:27;7.30;99.90
53880;DHT22;39791;53.184;5.486;2023-01-28T15:12:58;7.40;99.90
53880;DHT22;39791;53.184;5.486;2023-01-28T15:15:36;7.20;99.90
53880;DHT22;39791;53.184;5.486;2023-01-28T15:18:50;7.20;99.90
53880;DHT22;39791;53.184;5.486;2023-01-28T15:20:52;7.20;99.90
53880;DHT22;39791;53.184;5.486;2023-01-28T15:25:56;7.10;99.90
53880;DHT22;39791;53.184;5.486;2023-01-28T15:28:34;7.20;99.90
53880;DHT22;39791;53.184;5.486;2023-01-28T15:31:01;7.00;99.90
53880;DHT22;39791;53.184;5.486;2023-01-28T15:33:27;7.20;99.90
53880;DHT22;39791;53.184;5.486;2023-01-28T15:35:54;6.90;99.90
53880;DHT22;39791;53.184;5.486;2023-01-28T15:38:21;7.00;99.90
53880;DHT22;39791;53.184;5.486;2023-01-28T15:40:50;6.80;99.90
53880;DHT22;39791;53.184;5.486;2023-01-28T15:43:23;6.90;99.90
53880;DHT22;39791;53.184;5.486;2023-01-28T15:45:52;6.80;99.90
53880;DHT22;39791;53.184;5.486;2023-01-28T15:48:21;7.10;99.90
53880;DHT22;39791;53.184;5.486;2023-01-28T15:51:06;6.90;99.90
53880;DHT22;39791;53.184;5.486;2023-01-28T15:53:42;6.80;99.90
53880;DHT22;39791;53.184;5.486;2023-01-28T15:56:10;7.00;99.90
53880;DHT22;39791;53.184;5.486;2023-01-28T15:58:36;7.30;99.90
53880;DHT22;39791;53.184;5.486;2023-01-28T16:03:38;6.90;99.90
53880;DHT22;39791;53.184;5.486;2023-01-28T16:06:11;6.60;99.90
53880;DHT22;39791;53.184;5.486;2023-01-28T16:09:45;6.60;1.00
53880;DHT22;39791;53.184;5.486;2023-01-28T16:11:45;6.90;99.90
53880;DHT22;39791;53.184;5.486;2023-01-28T16:14:28;6.90;99.90
53880;DHT22;39791;53.184;5.486;2023-01-28T16:16:56;6.70;99.90
53880;DHT22;39791;53.184;5.486;2023-01-28T16:19:37;6.80;99.90
53880;DHT22;39791;53.184;5.486;2023-01-28T16:22:05;6.40;99.90
53880;DHT22;39791;53.184;5.486;2023-01-28T16:24:32;6.40;99.90
53880;DHT22;39791;53.184;5.486;2023-01-28T16:27:21;6.50;1.00
53880;DHT22;39791;53.184;5.486;2023-01-28T16:29:47;6.70;1.00
53880;DHT22;39791;53.184;5.486;2023-01-28T16:34:55;6.70;1.00
53880;DHT22;39791;53.184;5.486;2023-01-28T16:37:21;6.40;1.00
53880;DHT22;39791;53.184;5.486;2023-01-28T16:39:47;6.70;1.00
53880;DHT22;39791;53.184;5.486;2023-01-28T16:42:13;6.50;1.00
53880;DHT22;39791;53.184;5.486;2023-01-28T16:44:39;6.40;1.00
53880;DHT22;39791;53.184;5.486;2023-01-28T16:47:04;6.40;1.00
53880;DHT22;39791;53.184;5.486;2023-01-28T16:49:30;6.70;1.00
53880;DHT22;39791;53.184;5.486;2023-01-28T16:51:57;6.40;1.00
53880;DHT22;39791;53.184;5.486;2023-01-28T16:54:22;6.50;1.00
53880;DHT22;39791;53.184;5.486;2023-01-28T16:56:48;6.50;1.00
53880;DHT22;39791;53.184;5.486;2023-01-28T16:59:14;6.50;1.00
53880;DHT22;39791;53.184;5.486;2023-01-28T17:01:41;6.70;1.00
53880;DHT22;39791;53.184;5.486;2023-01-28T17:04:07;6.50;1.00
53880;DHT22;39791;53.184;5.486;2023-01-28T17:06:36;6.70;1.00
53880;DHT22;39791;53.184;5.486;2023-01-28T17:09:05;6.80;1.00
53880;DHT22;39791;53.184;5.486;2023-01-28T17:11:32;6.50;1.00
53880;DHT22;39791;53.184;5.486;2023-01-28T17:13:58;6.50;1.00
53880;DHT22;39791;53.184;5.486;2023-01-28T17:16:23;6.50;1.00
53880;DHT22;39791;53.184;5.486;2023-01-28T17:18:50;6.80;1.00
53880;DHT22;39791;53.184;5.486;2023-01-28T17:21:16;6.60;1.00
53880;DHT22;39791;53.184;5.486;2023-01-28T17:23:41;6.70;1.00
53880;DHT22;39791;53.184;5.486;2023-01-28T17:26:09;6.60;1.00
53880;DHT22;39791;53.184;5.486;2023-01-28T17:28:35;6.80;1.00
53880;DHT22;39791;53.184;5.486;2023-01-28T17:31:09;6.60;1.00
53880;DHT22;39791;53.184;5.486;2023-01-28T17:33:36;6.50;1.00
53880;DHT22;39791;53.184;5.486;2023-01-28T17:36:03;6.50;1.00
53880;DHT22;39791;53.184;5.486;2023-01-28T17:38:28;6.70;1.00
53880;DHT22;39791;53.184;5.486;2023-01-28T17:41:03;6.70;1.00
53880;DHT22;39791;53.184;5.486;2023-01-28T17:43:29;6.70;1.00
53880;DHT22;39791;53.184;5.486;2023-01-28T17:45:55;6.50;1.00
53880;DHT22;39791;53.184;5.486;2023-01-28T17:48:20;6.60;1.00
53880;DHT22;39791;53.184;5.486;2023-01-28T17:50:46;6.50;1.00
53880;DHT22;39791;53.184;5.486;2023-01-28T17:53:11;6.80;1.00
53880;DHT22;39791;53.184;5.486;2023-01-28T17:55:37;6.60;1.00
53880;DHT22;39791;53.184;5.486;2023-01-28T17:58:03;6.80;1.00
53880;DHT22;39791;53.184;5.486;2023-01-28T18:00:29;6.60;1.00